Watergrasshill, Ireland

10:34 AM IST on August 30, 2016 (GMT +0100)
ICORKWAT2 | | Change Station

Elev 595 ft 52.01 °N, 8.34 °W | Updated 3 days ago

Cloudy
Cloudy
62 °F
Feels Like 62 °F
N
15
Wind Variable Wind from SSW
Gusts mph

Today
High -- | Low -- °F
--% Chance of Precip.
Yesterday
High -- | Low -- °F
Precip. -- in
Pressure 30.18 in
Visibility 6.2 miles
Clouds Scattered Clouds 1000 ft
Mostly Cloudy 2500 ft
Dew Point 57 °F
Humidity 85%
Rainfall in
Snow Depth Not available.
6:42 AM 8:24 PM
Waning Crescent, 4% visible
METAR EICK 300930Z 19011KT 9999 SCT010 BKN025 16/14 Q1022 NOSIG
Pressure 30.18 in
Visibility 6.2 miles
Clouds Scattered Clouds 1000 ft
Mostly Cloudy 2500 ft
Dew Point 57 °F
Humidity 85%
Rainfall in
Snow Depth Not available.
6:42 AM 8:24 PM
Waning Crescent, 4% visible
METAR EICK 300930Z 19011KT 9999 SCT010 BKN025 16/14 Q1022 NOSIG

10-Day Weather Forecast

×

Almanac

Astronomy

Aug. 30, 2016 Rise Set
Actual Time
Civil Twilight
Nautical Twilight
Astronomical Twilight
Moon
Length of Visible Light
Length of Day
Tomorrow will be .
, % of the Moon is Illuminated

Today's Extremes

Country Highs Country Lows

Community

WunderPhotos

Upload Photos

1,935,795 photos uploaded!

WunderBlog® & News

Nearby

Air Quality

  Air Quality AQ Index Pollutant
Not available.

Snow Depth

Station Depth Elevation

Earthquake Activity

City Distance Mag. Time & Date
Minimum magnitude displayed is 2.5.

Coastal Water Temperatures

Place Temperature

Stations

Nearby Weather Stations

Station Location Temp. Windchill Dew Point Humidity Wind Precip. Elev Updated Type